Terminal Aerodrome Forecast
Issued by NWS Wilmington, OH

Current Version | Previous Version | Graphics & Text | Print | Product List | Glossary On
Versions: 1 2 3 4 5 6 7 8 9 10 11 12 13 14 15 16 17 18 19 20 21 22 23 24 25 26
000
FTUS41 KILN 231132
TAFCMH
TAF
KCMH 231132Z 2312/2412 20006KT P6SM SCT028 OVC050
     FM231500 22005KT P6SM OVC028
     FM232100 22005KT P6SM OVC050
     FM240000 VRB03KT P6SM BKN035
     FM240500 VRB03KT P6SM OVC025
     FM240900 17008KT P6SM OVC045=

USA.gov is the U.S. government's official web portal to all federal, state and local government web resources and services.